createdAt,value
2019-05-07T00:01:20.384Z,34.23
2019-05-07T00:03:53.876Z,34.11
2019-05-07T00:06:27.210Z,34.17
2019-05-07T00:09:03.071Z,34.15
2019-05-07T00:11:37.271Z,34.19
2019-05-07T00:14:12.607Z,34.11
2019-05-07T00:16:45.652Z,34.12
2019-05-07T00:19:18.972Z,33.97
2019-05-07T00:21:52.930Z,34.05
2019-05-07T00:24:26.611Z,33.79
2019-05-07T00:27:02.602Z,33.97
2019-05-07T00:29:35.093Z,33.97
2019-05-07T00:32:11.973Z,34.04
2019-05-07T00:34:45.891Z,33.67
2019-05-07T00:37:19.314Z,33.84
2019-05-07T00:39:52.925Z,33.65
2019-05-07T00:42:26.365Z,33.88
2019-05-07T00:45:14.064Z,33.97
2019-05-07T00:47:37.010Z,33.99
2019-05-07T00:50:12.950Z,34.02
2019-05-07T00:52:46.542Z,34.08
2019-05-07T00:55:19.847Z,34.10
2019-05-07T00:57:53.188Z,34.16
2019-05-07T01:00:26.567Z,34.13
2019-05-07T01:02:59.921Z,34.21
2019-05-07T01:05:33.418Z,34.25
2019-05-07T01:08:06.869Z,34.31
2019-05-07T01:10:41.952Z,34.27
2019-05-07T01:13:15.554Z,34.33
2019-05-07T01:15:48.994Z,34.40
2019-05-07T01:18:23.445Z,34.40
2019-05-07T01:20:57.021Z,34.36
2019-05-07T01:23:32.260Z,34.34
2019-05-07T01:26:06.048Z,34.42
2019-05-07T01:28:39.400Z,34.50
2019-05-07T01:31:12.834Z,34.45
2019-05-07T01:33:47.766Z,34.43
2019-05-07T01:36:22.743Z,34.46
2019-05-07T01:38:56.518Z,34.47
2019-05-07T01:41:29.822Z,34.50
2019-05-07T01:44:03.279Z,34.57
2019-05-07T01:46:36.748Z,34.62
2019-05-07T01:49:12.037Z,34.52
2019-05-07T01:51:45.127Z,34.60
2019-05-07T01:54:18.491Z,34.47
2019-05-07T01:56:52.259Z,34.57
2019-05-07T01:59:25.782Z,34.60
2019-05-07T02:01:59.152Z,34.59
2019-05-07T02:04:32.785Z,34.62
2019-05-07T02:07:06.228Z,34.64
2019-05-07T02:09:39.576Z,34.62
2019-05-07T02:12:13.254Z,34.70
2019-05-07T02:14:46.833Z,34.68
2019-05-07T02:17:20.156Z,34.69
2019-05-07T02:19:53.491Z,34.68
2019-05-07T02:22:27.989Z,34.60
2019-05-07T02:25:03.329Z,34.65
2019-05-07T02:27:38.269Z,34.51
2019-05-07T02:30:14.812Z,34.60
2019-05-07T02:32:48.367Z,34.41
2019-05-07T02:35:23.465Z,34.59
2019-05-07T02:37:57.999Z,34.71
2019-05-07T02:40:33.921Z,34.69
2019-05-07T02:43:06.535Z,34.50
2019-05-07T02:45:40.257Z,34.67
2019-05-07T02:48:13.751Z,34.74
2019-05-07T02:50:47.103Z,34.80
2019-05-07T02:53:22.815Z,34.70
2019-05-07T02:55:55.768Z,34.74
2019-05-07T02:58:29.257Z,34.74
2019-05-07T03:01:04.725Z,34.78
2019-05-07T03:03:37.728Z,34.83
2019-05-07T03:06:13.567Z,34.84
2019-05-07T03:08:46.492Z,34.85
2019-05-07T03:11:22.779Z,34.70
2019-05-07T03:13:54.945Z,34.84
2019-05-07T03:16:39.610Z,34.91
2019-05-07T03:19:04.549Z,34.84
2019-05-07T03:21:37.909Z,34.48
2019-05-07T03:24:13.857Z,34.68
2019-05-07T03:26:46.313Z,34.65
2019-05-07T03:29:19.685Z,34.76
2019-05-07T03:31:56.165Z,34.90
2019-05-07T03:34:28.271Z,34.71
2019-05-07T03:37:06.215Z,34.60
2019-05-07T03:39:36.855Z,34.57
2019-05-07T03:42:13.036Z,34.47
2019-05-07T03:44:45.584Z,34.48
2019-05-07T03:47:19.190Z,34.49
2019-05-07T03:49:53.507Z,34.48
2019-05-07T03:52:27.334Z,34.51
2019-05-07T03:55:03.676Z,34.45
2019-05-07T03:57:37.740Z,34.39
2019-05-07T04:00:12.909Z,33.62
2019-05-07T04:02:46.736Z,33.77
2019-05-07T04:05:22.946Z,33.89
2019-05-07T04:07:55.271Z,33.66
2019-05-07T04:10:28.656Z,33.68
2019-05-07T04:13:04.465Z,33.28
2019-05-07T04:15:37.027Z,33.05
2019-05-07T04:18:13.047Z,33.12
2019-05-07T04:20:45.544Z,32.55
2019-05-07T04:23:19.153Z,32.06
2019-05-07T04:25:53.455Z,32.03
2019-05-07T04:28:28.064Z,31.94
2019-05-07T04:31:02.914Z,31.69
2019-05-07T04:33:37.575Z,30.99
2019-05-07T04:36:14.211Z,31.04
2019-05-07T04:38:47.011Z,31.19
2019-05-07T04:41:23.024Z,30.97
2019-05-07T04:43:55.606Z,30.91
2019-05-07T04:46:33.242Z,30.66
2019-05-07T04:49:05.642Z,30.46
2019-05-07T04:51:39.097Z,30.78
2019-05-07T04:54:14.263Z,30.58
2019-05-07T04:56:47.675Z,30.12
2019-05-07T04:59:23.791Z,30.40
2019-05-07T05:01:56.883Z,29.95
2019-05-07T05:04:34.674Z,30.02
2019-05-07T05:07:06.373Z,30.33
2019-05-07T05:09:42.484Z,30.22
2019-05-07T05:12:14.822Z,30.24
2019-05-07T05:14:48.178Z,30.31
2019-05-07T05:17:22.453Z,30.41
2019-05-07T05:19:55.868Z,30.29
2019-05-07T05:22:31.740Z,30.42
2019-05-07T05:25:05.441Z,30.20
2019-05-07T05:27:38.819Z,30.30
2019-05-07T05:30:12.533Z,30.15
2019-05-07T05:32:45.847Z,30.33
2019-05-07T05:35:22.059Z,30.04
2019-05-07T05:37:55.074Z,30.37
2019-05-07T05:40:28.408Z,30.48
2019-05-07T05:43:01.989Z,30.52
2019-05-07T05:45:36.907Z,30.22
2019-05-07T05:48:13.340Z,30.52
2019-05-07T05:50:45.579Z,30.58
2019-05-07T05:53:19.141Z,30.70
2019-05-07T05:55:52.888Z,30.75
2019-05-07T05:58:27.357Z,30.74
2019-05-07T06:01:02.548Z,30.69
2019-05-07T06:03:36.818Z,30.78
2019-05-07T06:06:12.667Z,31.04
2019-05-07T06:08:45.357Z,31.02
2019-05-07T06:11:18.680Z,30.89
2019-05-07T06:13:52.701Z,30.77
2019-05-07T06:16:26.184Z,30.82
2019-05-07T06:19:01.936Z,30.73
2019-05-07T06:21:34.970Z,30.73
2019-05-07T06:24:08.361Z,31.05
2019-05-07T06:26:42.583Z,31.02
2019-05-07T06:29:16.112Z,31.14
2019-05-07T06:31:49.789Z,31.29
2019-05-07T06:34:23.315Z,30.97
2019-05-07T06:36:56.703Z,31.14
2019-05-07T06:39:30.126Z,30.72
2019-05-07T06:42:03.764Z,31.21
2019-05-07T06:44:37.249Z,30.75
2019-05-07T06:47:12.966Z,30.87
2019-05-07T06:49:45.974Z,31.21
2019-05-07T06:52:19.308Z,31.33
2019-05-07T06:54:52.737Z,31.46
2019-05-07T06:57:26.172Z,31.68
2019-05-07T06:59:59.533Z,31.90
2019-05-07T07:02:32.926Z,31.77
2019-05-07T07:05:06.322Z,31.81
2019-05-07T07:07:41.964Z,31.13
2019-05-07T07:10:14.780Z,31.55
2019-05-07T07:12:48.150Z,31.73
2019-05-07T07:15:23.211Z,31.87
2019-05-07T07:17:56.833Z,31.64
2019-05-07T07:20:32.453Z,31.64
2019-05-07T07:23:05.546Z,31.70
2019-05-07T07:25:39.219Z,31.78
2019-05-07T07:28:12.643Z,32.02
2019-05-07T07:30:45.991Z,31.84
2019-05-07T07:33:19.368Z,31.90
2019-05-07T07:35:53.012Z,32.03
2019-05-07T07:38:26.376Z,31.88
2019-05-07T07:41:02.319Z,32.14
2019-05-07T07:43:35.525Z,32.20
2019-05-07T07:46:08.910Z,32.12
2019-05-07T07:48:43.506Z,32.34
2019-05-07T07:51:17.175Z,32.16
2019-05-07T07:53:52.049Z,32.04
2019-05-07T07:56:25.483Z,31.51
2019-05-07T07:58:58.918Z,31.87
2019-05-07T08:01:33.025Z,31.63
2019-05-07T08:04:06.521Z,31.97
2019-05-07T08:06:42.011Z,32.05
2019-05-07T08:09:15.063Z,32.21
2019-05-07T08:11:48.367Z,32.41
2019-05-07T08:14:22.005Z,32.51
2019-05-07T08:16:55.625Z,32.46
2019-05-07T08:19:29.027Z,32.27
2019-05-07T08:22:02.986Z,31.88
2019-05-07T08:24:36.852Z,32.16
2019-05-07T08:27:14.679Z,32.04
2019-05-07T08:29:45.616Z,32.28
2019-05-07T08:32:19.141Z,32.15
2019-05-07T08:34:52.474Z,32.00
2019-05-07T08:37:25.827Z,32.23
2019-05-07T08:39:59.377Z,32.01
2019-05-07T08:42:33.118Z,32.05
2019-05-07T08:45:06.653Z,31.98
2019-05-07T08:47:40.101Z,32.08
2019-05-07T08:50:15.983Z,31.93
2019-05-07T08:52:52.199Z,31.96
2019-05-07T08:55:25.716Z,32.12
2019-05-07T08:57:59.079Z,32.13
2019-05-07T09:00:33.754Z,32.08
2019-05-07T09:03:19.278Z,32.10
2019-05-07T09:05:42.643Z,31.45
2019-05-07T09:08:15.999Z,31.72
2019-05-07T09:10:50.011Z,31.21
2019-05-07T09:13:23.337Z,31.70
2019-05-07T09:15:58.160Z,31.73
2019-05-07T09:18:32.213Z,32.12
2019-05-07T09:21:05.857Z,32.05
2019-05-07T09:23:39.173Z,31.88
2019-05-07T09:26:13.073Z,32.07
2019-05-07T09:28:46.627Z,32.14
2019-05-07T09:31:20.240Z,32.08
2019-05-07T09:33:53.638Z,31.95
2019-05-07T09:36:27.021Z,31.82
2019-05-07T09:39:02.678Z,31.62
2019-05-07T09:41:37.281Z,31.59
2019-05-07T09:44:11.921Z,31.09
2019-05-07T09:46:46.743Z,31.17
2019-05-07T09:49:22.136Z,31.13
2019-05-07T09:51:55.167Z,31.10
2019-05-07T09:54:29.374Z,31.02
2019-05-07T09:57:02.721Z,30.96
2019-05-07T09:59:36.074Z,30.73
2019-05-07T10:02:09.392Z,30.62
2019-05-07T10:04:42.878Z,30.54
2019-05-07T10:07:16.181Z,30.25
2019-05-07T10:09:49.527Z,30.25
2019-05-07T10:12:22.946Z,30.18
2019-05-07T10:14:56.578Z,30.00
2019-05-07T10:17:29.888Z,29.83
2019-05-07T10:20:18.236Z,29.16
2019-05-07T10:22:42.711Z,29.23
2019-05-07T10:25:15.973Z,29.29
2019-05-07T10:27:50.298Z,29.43
2019-05-07T10:30:23.633Z,29.32
2019-05-07T10:32:56.943Z,29.29
2019-05-07T10:35:33.157Z,29.20
2019-05-07T10:38:05.319Z,29.33
2019-05-07T10:40:40.350Z,29.30
2019-05-07T10:43:13.894Z,28.88
2019-05-07T10:45:47.235Z,29.01
2019-05-07T10:48:22.059Z,29.11
2019-05-07T10:50:55.642Z,29.05
2019-05-07T10:53:29.002Z,28.95
2019-05-07T10:56:03.894Z,28.91
2019-05-07T10:58:37.247Z,29.08
2019-05-07T11:01:12.081Z,29.21
2019-05-07T11:03:47.017Z,29.30
2019-05-07T11:06:22.158Z,29.17
2019-05-07T11:08:55.531Z,28.98
2019-05-07T11:11:28.876Z,29.25
2019-05-07T11:14:02.198Z,29.26
2019-05-07T11:16:35.514Z,29.20
2019-05-07T11:19:08.835Z,29.24
2019-05-07T11:21:42.180Z,29.26
2019-05-07T11:24:15.495Z,28.87
2019-05-07T11:26:48.922Z,29.19
2019-05-07T11:29:22.271Z,28.88
2019-05-07T11:31:55.920Z,29.31
2019-05-07T11:34:29.238Z,29.13
2019-05-07T11:37:02.680Z,29.54
2019-05-07T11:39:36.062Z,29.83
2019-05-07T11:42:09.607Z,29.82
2019-05-07T11:44:42.921Z,29.49
2019-05-07T11:47:16.396Z,29.77
2019-05-07T11:49:49.715Z,29.78
2019-05-07T11:52:24.622Z,29.79
2019-05-07T11:54:57.958Z,29.84
2019-05-07T11:57:31.469Z,29.84
2019-05-07T12:00:07.581Z,29.61
2019-05-07T12:02:47.294Z,29.96
2019-05-07T12:05:17.558Z,29.79
2019-05-07T12:07:51.052Z,29.90
2019-05-07T12:10:24.532Z,29.99
2019-05-07T12:12:57.887Z,29.89
2019-05-07T12:15:32.508Z,29.31
2019-05-07T12:18:06.279Z,29.71
2019-05-07T12:20:41.215Z,29.45
2019-05-07T12:23:14.606Z,29.67
2019-05-07T12:25:47.947Z,29.59
2019-05-07T12:28:22.572Z,29.68
2019-05-07T12:30:56.710Z,29.64
2019-05-07T12:33:32.520Z,29.56
2019-05-07T12:36:05.967Z,29.29
2019-05-07T12:38:41.660Z,29.63
2019-05-07T12:41:14.720Z,29.66
2019-05-07T12:43:48.142Z,29.31
2019-05-07T12:46:22.352Z,29.83
2019-05-07T12:48:56.126Z,29.74
2019-05-07T12:51:34.593Z,29.91
2019-05-07T12:54:04.622Z,29.79
2019-05-07T12:56:37.964Z,29.71
2019-05-07T12:59:12.879Z,29.64
2019-05-07T13:01:46.681Z,29.81
2019-05-07T13:04:21.997Z,29.75
2019-05-07T13:06:55.106Z,29.72
2019-05-07T13:09:28.539Z,29.59
2019-05-07T13:12:03.019Z,29.65
2019-05-07T13:14:36.481Z,29.86
2019-05-07T13:17:11.963Z,29.71
2019-05-07T13:19:44.821Z,29.66
2019-05-07T13:22:18.155Z,29.62
2019-05-07T13:24:52.924Z,29.55
2019-05-07T13:27:27.364Z,29.58
2019-05-07T13:30:02.605Z,29.57
2019-05-07T13:32:36.360Z,29.60
2019-05-07T13:35:11.778Z,29.68
2019-05-07T13:37:45.110Z,29.63
2019-05-07T13:40:18.487Z,29.60
2019-05-07T13:42:52.267Z,30.00
2019-05-07T13:45:25.932Z,29.87
2019-05-07T13:47:59.338Z,29.97
2019-05-07T13:50:32.701Z,30.26
2019-05-07T13:53:05.988Z,29.91
2019-05-07T13:55:39.514Z,30.27
2019-05-07T13:58:14.345Z,30.12
2019-05-07T14:00:48.918Z,30.07
2019-05-07T14:03:22.737Z,29.41
2019-05-07T14:05:57.220Z,29.80
2019-05-07T14:08:32.158Z,29.82
2019-05-07T14:11:05.537Z,29.88
2019-05-07T14:13:38.856Z,29.92
2019-05-07T14:16:12.231Z,29.71
2019-05-07T14:18:45.607Z,29.78
2019-05-07T14:21:18.950Z,29.65
2019-05-07T14:23:52.303Z,29.39
2019-05-07T14:26:25.670Z,29.65
2019-05-07T14:29:01.925Z,29.71
2019-05-07T14:31:35.370Z,29.78
2019-05-07T14:34:08.701Z,29.83
2019-05-07T14:36:42.695Z,29.84
2019-05-07T14:39:16.184Z,30.00
2019-05-07T14:41:49.490Z,29.93
2019-05-07T14:44:25.270Z,29.68
2019-05-07T14:47:02.312Z,29.79
2019-05-07T14:49:35.545Z,29.80
2019-05-07T14:52:12.501Z,29.81
2019-05-07T14:54:46.100Z,29.49
2019-05-07T14:57:21.719Z,29.29
2019-05-07T14:59:56.525Z,28.18
2019-05-07T15:02:29.899Z,27.93
2019-05-07T15:05:05.798Z,27.78
2019-05-07T15:07:39.786Z,27.91
2019-05-07T15:10:13.332Z,27.99
2019-05-07T15:12:46.734Z,28.33
2019-05-07T15:15:22.001Z,28.72
2019-05-07T15:17:55.255Z,29.29
2019-05-07T15:20:29.437Z,29.32
2019-05-07T15:23:02.869Z,29.65
2019-05-07T15:25:36.464Z,29.45
2019-05-07T15:28:09.654Z,29.79
2019-05-07T15:30:43.469Z,29.81
2019-05-07T15:33:16.899Z,29.77
2019-05-07T15:35:52.072Z,29.45
2019-05-07T15:38:25.389Z,29.64
2019-05-07T15:40:58.814Z,29.97
2019-05-07T15:43:32.511Z,29.97
2019-05-07T15:46:06.111Z,29.62
2019-05-07T15:48:39.451Z,30.12
2019-05-07T15:51:12.855Z,29.57
2019-05-07T15:53:47.810Z,29.89
2019-05-07T15:56:21.913Z,29.57
2019-05-07T15:58:55.344Z,29.88
2019-05-07T16:01:28.827Z,29.95
2019-05-07T16:04:02.781Z,29.87
2019-05-07T16:06:36.459Z,29.93
2019-05-07T16:09:09.974Z,30.33
2019-05-07T16:11:43.491Z,29.57
2019-05-07T16:14:16.967Z,29.85
2019-05-07T16:16:51.993Z,30.02
2019-05-07T16:19:25.355Z,30.08
2019-05-07T16:22:03.615Z,30.05
2019-05-07T16:24:34.953Z,30.20
2019-05-07T16:27:08.269Z,30.26
2019-05-07T16:29:42.166Z,30.42
2019-05-07T16:32:15.975Z,30.43
2019-05-07T16:34:50.188Z,30.50
2019-05-07T16:37:23.578Z,30.25
2019-05-07T16:39:58.641Z,30.02
2019-05-07T16:42:33.633Z,29.91
2019-05-07T16:45:07.086Z,30.22
2019-05-07T16:47:40.442Z,30.43
2019-05-07T16:50:14.752Z,30.60
2019-05-07T16:52:48.122Z,30.66
2019-05-07T16:55:22.405Z,31.17
2019-05-07T16:57:56.018Z,31.14
2019-05-07T17:00:31.736Z,31.49
2019-05-07T17:03:04.733Z,31.48
2019-05-07T17:05:39.023Z,31.64
2019-05-07T17:08:12.506Z,31.42
2019-05-07T17:10:46.506Z,31.54
2019-05-07T17:13:19.874Z,31.65
2019-05-07T17:15:53.207Z,31.79
2019-05-07T17:18:28.442Z,31.74
2019-05-07T17:21:02.214Z,31.65
2019-05-07T17:23:44.126Z,31.65
2019-05-07T17:26:11.732Z,31.61
2019-05-07T17:28:45.166Z,31.64
2019-05-07T17:31:18.578Z,31.58
2019-05-07T17:33:51.923Z,31.53
2019-05-07T17:36:25.306Z,31.59
2019-05-07T17:38:58.733Z,31.63
2019-05-07T17:41:32.406Z,31.41
2019-05-07T17:44:06.502Z,31.66
2019-05-07T17:46:42.686Z,31.78
2019-05-07T17:49:15.875Z,32.09
2019-05-07T17:51:49.267Z,32.00
2019-05-07T17:54:22.730Z,31.93
2019-05-07T17:56:56.067Z,32.14
2019-05-07T17:59:29.492Z,32.13
2019-05-07T18:02:03.605Z,32.20
2019-05-07T18:04:48.466Z,32.12
2019-05-07T18:07:12.374Z,32.09
2019-05-07T18:09:46.789Z,31.98
2019-05-07T18:12:22.464Z,31.87
2019-05-07T18:14:55.741Z,32.06
2019-05-07T18:17:30.265Z,31.95
2019-05-07T18:20:04.316Z,31.78
2019-05-07T18:22:37.926Z,31.38
2019-05-07T18:25:12.451Z,31.39
2019-05-07T18:27:46.537Z,31.46
2019-05-07T18:30:22.063Z,31.31
2019-05-07T18:32:55.377Z,31.08
2019-05-07T18:35:32.150Z,31.23
2019-05-07T18:38:06.934Z,31.20
2019-05-07T18:40:42.131Z,31.23
2019-05-07T18:43:17.380Z,31.34
2019-05-07T18:45:51.755Z,31.38
2019-05-07T18:48:26.763Z,31.37
2019-05-07T18:51:02.746Z,31.22
2019-05-07T18:53:36.356Z,31.20
2019-05-07T18:56:10.049Z,31.43
2019-05-07T18:58:44.377Z,31.38
2019-05-07T19:01:17.912Z,31.22
2019-05-07T19:03:52.566Z,31.23
2019-05-07T19:06:26.507Z,31.30
2019-05-07T19:09:00.152Z,31.34
2019-05-07T19:11:35.340Z,31.40
2019-05-07T19:14:10.600Z,31.37
2019-05-07T19:16:44.317Z,31.29
2019-05-07T19:19:17.506Z,31.27
2019-05-07T19:21:52.790Z,31.44
2019-05-07T19:24:26.597Z,31.26
2019-05-07T19:27:02.038Z,31.52
2019-05-07T19:29:35.127Z,31.58
2019-05-07T19:32:08.681Z,31.59
2019-05-07T19:34:43.860Z,31.49
2019-05-07T19:37:17.465Z,31.59
2019-05-07T19:39:52.369Z,31.67
2019-05-07T19:42:26.409Z,31.61
2019-05-07T19:45:02.643Z,31.20
2019-05-07T19:47:36.942Z,31.47
2019-05-07T19:50:12.401Z,31.63
2019-05-07T19:52:45.477Z,31.66
2019-05-07T19:55:18.927Z,31.68
2019-05-07T19:57:52.343Z,31.92
2019-05-07T20:00:27.439Z,31.92
2019-05-07T20:03:00.876Z,31.71
2019-05-07T20:05:37.198Z,32.22
2019-05-07T20:08:11.882Z,32.26
2019-05-07T20:10:44.815Z,32.31
2019-05-07T20:13:18.141Z,32.56
2019-05-07T20:15:52.851Z,32.30
2019-05-07T20:18:26.242Z,32.14
2019-05-07T20:21:02.553Z,32.09
2019-05-07T20:23:36.632Z,32.27
2019-05-07T20:26:12.644Z,31.70
2019-05-07T20:28:46.199Z,31.96
2019-05-07T20:31:19.658Z,32.16
2019-05-07T20:33:53.299Z,32.24
2019-05-07T20:36:26.986Z,32.52
2019-05-07T20:39:02.227Z,33.35
2019-05-07T20:41:37.074Z,32.89
2019-05-07T20:44:11.942Z,33.31
2019-05-07T20:46:45.664Z,33.22
2019-05-07T20:49:19.009Z,33.48
2019-05-07T20:51:52.797Z,33.69
2019-05-07T20:54:26.311Z,33.70
2019-05-07T20:57:02.108Z,33.57
2019-05-07T20:59:34.974Z,33.47
2019-05-07T21:02:08.372Z,33.77
2019-05-07T21:04:42.495Z,33.59
2019-05-07T21:07:16.293Z,33.53
2019-05-07T21:09:49.719Z,33.85
2019-05-07T21:12:23.082Z,33.91
2019-05-07T21:14:56.565Z,33.66
2019-05-07T21:17:32.074Z,33.92
2019-05-07T21:20:06.728Z,33.71
2019-05-07T21:22:40.086Z,33.80
2019-05-07T21:25:13.429Z,33.69
2019-05-07T21:27:46.753Z,33.67
2019-05-07T21:30:22.194Z,33.73
2019-05-07T21:32:55.127Z,33.69
2019-05-07T21:35:28.474Z,33.77
2019-05-07T21:38:01.928Z,33.68
2019-05-07T21:40:35.315Z,33.44
2019-05-07T21:43:08.668Z,33.48
2019-05-07T21:45:42.394Z,33.28
2019-05-07T21:48:15.761Z,33.14
2019-05-07T21:50:49.158Z,32.29
2019-05-07T21:53:22.978Z,32.41
2019-05-07T21:56:01.888Z,32.37
2019-05-07T21:58:32.873Z,32.36
2019-05-07T22:01:06.224Z,32.10
2019-05-07T22:03:39.858Z,31.99
2019-05-07T22:06:13.221Z,31.96
2019-05-07T22:08:47.996Z,32.06
2019-05-07T22:11:22.957Z,32.01
2019-05-07T22:13:56.610Z,31.96
2019-05-07T22:16:30.120Z,31.91
2019-05-07T22:19:03.822Z,32.34
2019-05-07T22:21:37.127Z,32.08
2019-05-07T22:24:13.107Z,32.02
2019-05-07T22:26:46.194Z,32.00
2019-05-07T22:29:19.500Z,32.18
2019-05-07T22:31:53.082Z,32.04
2019-05-07T22:34:28.188Z,32.32
2019-05-07T22:37:03.335Z,31.94
2019-05-07T22:39:47.527Z,32.22
2019-05-07T22:42:28.582Z,32.15
2019-05-07T22:45:02.804Z,32.32
2019-05-07T22:47:36.523Z,32.18
2019-05-07T22:50:12.022Z,32.06
2019-05-07T22:52:45.104Z,31.94
2019-05-07T22:55:18.440Z,32.21
2019-05-07T22:57:52.530Z,32.12
2019-05-07T23:00:26.134Z,31.94
2019-05-07T23:02:59.512Z,31.57
2019-05-07T23:05:32.858Z,31.79
2019-05-07T23:08:06.166Z,31.84
2019-05-07T23:10:39.524Z,31.82
2019-05-07T23:13:13.097Z,31.98
2019-05-07T23:15:46.654Z,32.38
2019-05-07T23:18:22.592Z,32.17
2019-05-07T23:20:56.757Z,32.39
2019-05-07T23:23:32.053Z,32.23
2019-05-07T23:26:05.201Z,32.21
2019-05-07T23:28:39.207Z,32.61
2019-05-07T23:31:12.796Z,32.76
2019-05-07T23:33:46.256Z,32.61
2019-05-07T23:36:22.162Z,32.82
2019-05-07T23:38:56.432Z,32.90
2019-05-07T23:41:32.427Z,33.05
2019-05-07T23:44:05.761Z,33.02
2019-05-07T23:46:39.144Z,33.04
2019-05-07T23:49:12.713Z,32.87
2019-05-07T23:51:46.042Z,32.96
2019-05-07T23:54:19.385Z,33.02
2019-05-07T23:57:05.943Z,33.04
2019-05-07T23:59:29.198Z,33.09
